Southlake's Hourly Summary for Sunday, July 8, 2018
Hour Temp
(f)
RH
(%)
Solar Rad.
(MJ/m2)
Rainfall
(in)
Wind
(mph)
7/8/2018 12:00 AM 84 62 0 0 2.23
7/8/2018 1:00 AM 83 65 0 0 2.85
7/8/2018 2:00 AM 81 69 0 0 1.9
7/8/2018 3:00 AM 78 77 0 0 0.95
7/8/2018 4:00 AM 76 84 0 0 1.12
7/8/2018 5:00 AM 75 88 0 0 1.23
7/8/2018 6:00 AM 74 91 0.02 0 1.12
7/8/2018 7:00 AM 79 77 0.33 0 1.51
7/8/2018 8:00 AM 79 81 1 0 3.02
7/8/2018 9:00 AM 84 64 1.37 0 3.58
7/8/2018 10:00 AM 86 59 2.34 0 3.75
7/8/2018 11:00 AM 87 54 2.73 0 5.2
7/8/2018 12:00 PM 89 50 2.95 0 5.25
7/8/2018 1:00 PM 91 44 3.38 0 5.93
7/8/2018 2:00 PM 92 43 2.75 0 6.26
7/8/2018 3:00 PM 92 40 1.84 0 6.93
7/8/2018 4:00 PM 94 35 2.55 0 6.49
7/8/2018 5:00 PM 94 33 1.78 0 6.26
7/8/2018 6:00 PM 92 42 0.82 0 6.54
7/8/2018 7:00 PM 89 48 0.41 0 6.26
7/8/2018 8:00 PM 87 54 0.04 0 4.75
7/8/2018 9:00 PM 85 58 0 0 4.59
7/8/2018 10:00 PM 83 59 0 0 4.3
7/8/2018 11:00 PM 81 65 0 0 2.35
Data Summary 84 60 24.31 0.00 3.93